Time;durP1;ratioP1;P1;durP2;ratioP2;P2;SDS_P1;SDS_P2;PMS_P1;PMS_P2;Temp;Humidity;BMP_temperature;BMP_pressure;BME280_temperature;BME280_humidity;BME280_pressure;Samples;Min_cycle;Max_cycle;Signal;HPM_P1;HPM_P2
2023/09/11 00:01:39;;;;;;;7.47;4.53;;;20.40;99.90;;;;;;5034238;28;20041;-69
2023/09/11 00:04:08;;;;;;;11.98;4.50;;;20.40;99.90;;;;;;5049538;28;20048;-69
2023/09/11 00:06:37;;;;;;;7.00;4.70;;;20.40;99.90;;;;;;5050219;28;20702;-69
2023/09/11 00:09:12;;;;;;;8.88;4.65;;;20.40;99.90;;;;;;5064532;28;20037;-69
2023/09/11 00:11:42;;;;;;;8.48;4.95;;;20.40;99.90;;;;;;5054402;28;20048;-69
2023/09/11 00:14:08;;;;;;;9.65;5.13;;;20.30;99.90;;;;;;5071829;28;20041;-69
2023/09/11 00:16:35;;;;;;;8.63;5.00;;;20.30;99.90;;;;;;5048112;28;20116;-69
2023/09/11 00:19:02;;;;;;;9.18;4.88;;;20.30;99.90;;;;;;5033228;28;20037;-69
2023/09/11 00:21:29;;;;;;;11.00;4.85;;;20.30;99.90;;;;;;5050529;28;20084;-69
2023/09/11 00:23:55;;;;;;;13.80;5.38;;;20.30;99.90;;;;;;5034028;28;20048;-69
2023/09/11 00:26:22;;;;;;;9.50;5.55;;;20.30;99.90;;;;;;5032984;28;20137;-69
2023/09/11 00:28:49;;;;;;;7.15;4.57;;;20.30;99.90;;;;;;5051513;28;20037;-70
2023/09/11 00:31:19;;;;;;;9.05;4.80;;;20.20;99.90;;;;;;5033447;28;20507;-68
2023/09/11 00:33:49;;;;;;;8.38;4.97;;;20.20;99.90;;;;;;5034060;28;20051;-70
2023/09/11 00:36:16;;;;;;;11.43;4.22;;;20.20;99.90;;;;;;5051461;28;20072;-68
2023/09/11 00:38:57;;;;;;;14.40;5.38;;;20.20;99.90;;;;;;5033146;28;20128;-69
2023/09/11 00:41:23;;;;;;;10.60;4.10;;;20.20;99.90;;;;;;5050869;28;20497;-69
2023/09/11 00:43:58;;;;;;;8.30;5.40;;;20.20;99.90;;;;;;5050106;28;20041;-69
2023/09/11 00:46:26;;;;;;;9.43;4.90;;;20.20;99.90;;;;;;5049571;28;20041;-68
2023/09/11 00:48:55;;;;;;;14.73;5.22;;;20.20;99.90;;;;;;5049922;28;20049;-69
2023/09/11 00:51:21;;;;;;;;;;;20.20;99.90;;;;;;5033997;28;20037;-68
2023/09/11 00:53:48;;;;;;;10.85;5.20;;;20.10;99.90;;;;;;5050683;28;19928;-69
2023/09/11 00:56:23;;;;;;;13.40;5.50;;;20.10;99.90;;;;;;5026098;28;20057;-69
2023/09/11 00:58:51;;;;;;;9.60;5.32;;;20.10;99.90;;;;;;5013964;28;20033;-69
2023/09/11 01:01:19;;;;;;;13.55;5.43;;;20.10;99.90;;;;;;5049311;28;20072;-69
2023/09/11 01:03:46;;;;;;;11.68;4.95;;;20.10;99.90;;;;;;5033569;28;20041;-68
2023/09/11 01:06:12;;;;;;;9.27;5.53;;;20.10;99.90;;;;;;5069493;28;20119;-69
2023/09/11 01:08:39;;;;;;;8.93;4.72;;;20.10;99.90;;;;;;5053174;28;20047;-69
2023/09/11 01:11:10;;;;;;;10.75;4.80;;;20.00;99.90;;;;;;5064102;28;20052;-68
2023/09/11 01:13:47;;;;;;;7.40;4.82;;;20.00;99.90;;;;;;5049307;28;20056;-69
2023/09/11 01:16:41;;;;;;;9.65;6.10;;;20.00;99.90;;;;;;5034052;28;20036;-69
2023/09/11 01:19:28;;;;;;;9.45;5.63;;;19.90;99.90;;;;;;5050680;28;20067;-68
2023/09/11 01:22:04;;;;;;;8.67;5.40;;;19.90;99.90;;;;;;5049874;28;20059;-68
2023/09/11 01:24:40;;;;;;;12.63;6.93;;;19.90;99.90;;;;;;5049774;28;20080;-68
2023/09/11 01:27:35;;;;;;;11.95;5.75;;;19.90;99.90;;;;;;5050734;28;20045;-69
2023/09/11 01:30:02;;;;;;;11.15;5.65;;;19.90;99.90;;;;;;4972351;28;20501;-69
2023/09/11 01:32:31;;;;;;;10.60;6.07;;;19.80;99.90;;;;;;4956186;28;20062;-68
2023/09/11 01:34:57;;;;;;;11.47;5.60;;;19.80;99.90;;;;;;4955509;28;20062;-69
2023/09/11 01:37:43;;;;;;;13.50;6.78;;;19.80;99.90;;;;;;4988617;28;20033;-68
2023/09/11 01:40:12;;;;;;;9.95;4.85;;;19.80;99.90;;;;;;4988524;28;20101;-68
2023/09/11 01:42:46;;;;;;;10.55;5.63;;;19.80;99.90;;;;;;4987353;28;20046;-68
2023/09/11 01:45:16;;;;;;;9.00;5.50;;;19.80;99.90;;;;;;4988757;28;20471;-69
2023/09/11 01:47:53;;;;;;;15.68;5.90;;;19.80;99.90;;;;;;4972456;28;20062;-69
2023/09/11 01:50:29;;;;;;;18.42;5.68;;;19.80;99.90;;;;;;4987761;28;20399;-69
2023/09/11 01:53:04;;;;;;;10.40;5.22;;;19.80;99.90;;;;;;4976056;28;20046;-68
2023/09/11 01:55:35;;;;;;;11.57;5.68;;;19.70;99.90;;;;;;4920544;28;20089;-69
2023/09/11 01:58:08;;;;;;;8.88;5.85;;;19.70;99.90;;;;;;4966540;28;20042;-68
2023/09/11 02:00:38;;;;;;;9.73;5.75;;;19.70;99.90;;;;;;4992666;28;20125;-69
2023/09/11 02:03:04;;;;;;;12.70;5.78;;;19.70;99.90;;;;;;4987441;28;20052;-69
2023/09/11 02:05:40;;;;;;;7.65;4.53;;;19.70;99.90;;;;;;4988044;28;20042;-68
2023/09/11 02:08:07;;;;;;;13.10;5.38;;;19.70;99.90;;;;;;5044041;28;20051;-68
2023/09/11 02:10:34;;;;;;;9.18;5.10;;;19.70;99.90;;;;;;5030919;28;20102;-68
2023/09/11 02:13:00;;;;;;;8.73;5.47;;;19.70;99.90;;;;;;5049167;28;20057;-68
2023/09/11 02:15:27;;;;;;;9.50;4.88;;;19.70;99.90;;;;;;5048393;28;20055;-68
2023/09/11 02:17:53;;;;;;;12.27;6.00;;;19.70;99.90;;;;;;5047624;28;20048;-68
2023/09/11 02:20:20;;;;;;;13.60;5.53;;;19.80;99.90;;;;;;5031862;28;20095;-69
2023/09/11 02:22:58;;;;;;;15.63;6.65;;;19.70;99.90;;;;;;5049559;28;20036;-68
2023/09/11 02:25:24;;;;;;;12.77;5.73;;;19.70;99.90;;;;;;5048013;28;20028;-68
2023/09/11 02:27:52;;;;;;;8.40;6.45;;;19.70;99.90;;;;;;5049185;28;20045;-68
2023/09/11 02:30:21;;;;;;;8.38;5.53;;;19.70;99.90;;;;;;5047432;28;20065;-68
2023/09/11 02:32:47;;;;;;;;;;;19.60;99.90;;;;;;5048261;28;20045;-68
2023/09/11 02:35:14;;;;;;;8.65;4.82;;;19.60;99.90;;;;;;5047984;28;19916;-68
2023/09/11 02:37:45;;;;;;;12.93;6.07;;;19.60;99.90;;;;;;5031493;28;20045;-69
2023/09/11 02:40:15;;;;;;;18.98;5.63;;;19.50;99.90;;;;;;5048047;28;20107;-68
2023/09/11 02:42:45;;;;;;;10.82;5.47;;;19.50;99.90;;;;;;5032260;28;20045;-69
2023/09/11 02:45:13;;;;;;;9.10;5.32;;;19.50;99.90;;;;;;5047371;28;20045;-68
2023/09/11 02:47:40;;;;;;;9.60;5.40;;;19.60;99.90;;;;;;5031057;28;20127;-68
2023/09/11 02:50:12;;;;;;;10.73;5.60;;;19.60;99.90;;;;;;5047758;28;20471;-68
2023/09/11 02:52:41;;;;;;;15.40;6.13;;;19.60;99.90;;;;;;5048513;28;20049;-69
2023/09/11 02:55:11;;;;;;;9.48;6.00;;;19.60;99.90;;;;;;5031079;28;20045;-69
2023/09/11 02:57:38;;;;;;;11.20;5.45;;;19.60;99.90;;;;;;5041917;28;20056;-69
2023/09/11 03:00:08;;;;;;;18.02;6.18;;;19.70;99.90;;;;;;5055450;28;20051;-69
2023/09/11 03:02:36;;;;;;;11.07;4.97;;;19.70;99.90;;;;;;5031802;28;20045;-69
2023/09/11 03:05:24;;;;;;;13.60;6.20;;;19.70;99.90;;;;;;5048521;28;20562;-68
2023/09/11 03:08:11;;;;;;;9.35;5.28;;;19.60;99.90;;;;;;5048839;28;20405;-69
2023/09/11 03:10:39;;;;;;;10.35;5.43;;;19.60;99.90;;;;;;5047534;28;20537;-68
2023/09/11 03:13:08;;;;;;;7.88;5.40;;;19.60;99.90;;;;;;5047702;28;20081;-69
2023/09/11 03:15:34;;;;;;;13.38;5.97;;;19.50;99.90;;;;;;5047386;28;20048;-69
2023/09/11 03:18:02;;;;;;;11.75;5.88;;;19.60;99.90;;;;;;5047297;28;20059;-69
2023/09/11 03:20:33;;;;;;;8.73;5.53;;;19.50;99.90;;;;;;5047173;28;20049;-68
2023/09/11 03:23:02;;;;;;;10.77;6.10;;;19.50;99.90;;;;;;5050321;28;20041;-69
2023/09/11 03:25:47;;;;;;;8.70;5.95;;;19.60;99.90;;;;;;5051748;28;20144;-69
2023/09/11 03:28:13;;;;;;;11.77;5.95;;;19.60;99.90;;;;;;5050823;28;20044;-68
2023/09/11 03:30:39;;;;;;;11.68;6.35;;;19.60;99.90;;;;;;5060115;28;20131;-68
2023/09/11 03:33:10;;;;;;;11.90;6.15;;;19.60;99.90;;;;;;5054574;28;20102;-69
2023/09/11 03:35:36;;;;;;;13.68;5.90;;;19.60;99.90;;;;;;5037234;28;20037;-69
2023/09/11 03:38:02;;;;;;;12.00;6.03;;;19.60;99.90;;;;;;5030986;28;20104;-69
2023/09/11 03:40:32;;;;;;;10.60;6.28;;;19.60;99.90;;;;;;4989439;28;20072;-68
2023/09/11 03:42:58;;;;;;;10.30;4.93;;;19.60;99.90;;;;;;5026380;28;20558;-68
2023/09/11 03:45:26;;;;;;;10.80;5.95;;;19.60;99.90;;;;;;5026380;28;20097;-68
2023/09/11 03:47:54;;;;;;;13.20;6.93;;;19.60;99.90;;;;;;5017273;28;20043;-68
2023/09/11 03:50:22;;;;;;;13.00;5.80;;;19.60;99.90;;;;;;5034999;28;20855;-69
2023/09/11 03:52:50;;;;;;;13.05;6.45;;;19.60;99.90;;;;;;5020859;28;20125;-69
2023/09/11 03:55:20;;;;;;;18.55;7.38;;;19.60;99.90;;;;;;5036743;28;20085;-69
2023/09/11 03:57:47;;;;;;;16.67;6.07;;;19.60;99.90;;;;;;5004278;28;20047;-69
2023/09/11 04:00:14;;;;;;;11.73;6.22;;;19.60;99.90;;;;;;5029263;28;20090;-68
2023/09/11 04:02:40;;;;;;;13.07;6.90;;;19.60;99.90;;;;;;5036105;28;20443;-69
2023/09/11 04:05:08;;;;;;;15.18;6.25;;;19.60;99.90;;;;;;4968870;28;20506;-68
2023/09/11 04:07:37;;;;;;;10.38;5.53;;;19.60;99.90;;;;;;4969106;28;20034;-69
2023/09/11 04:10:06;;;;;;;14.13;6.25;;;19.50;99.90;;;;;;4971516;28;20051;-69
2023/09/11 04:12:35;;;;;;;11.07;6.85;;;19.50;99.90;;;;;;5025052;28;20082;-69
2023/09/11 04:15:22;;;;;;;14.88;7.22;;;19.50;99.90;;;;;;5071724;28;20400;-69
2023/09/11 04:17:49;;;;;;;8.52;5.15;;;19.50;99.90;;;;;;5021045;28;20439;-68
2023/09/11 04:20:24;;;;;;;11.50;5.95;;;19.50;99.90;;;;;;5071807;28;20052;-69
2023/09/11 04:22:53;;;;;;;13.80;6.30;;;19.50;99.90;;;;;;5070918;28;20404;-68
2023/09/11 04:25:19;;;;;;;11.23;6.78;;;19.50;99.90;;;;;;5037315;28;20089;-69
2023/09/11 04:27:46;;;;;;;11.50;6.45;;;19.50;99.90;;;;;;5037238;28;20052;-68
2023/09/11 04:30:14;;;;;;;11.45;7.32;;;19.50;99.90;;;;;;5029723;28;20444;-68
2023/09/11 04:32:41;;;;;;;11.43;6.30;;;19.50;99.90;;;;;;5030208;28;20578;-69
2023/09/11 04:35:08;;;;;;;12.65;5.95;;;19.50;99.90;;;;;;5063996;28;20052;-69
2023/09/11 04:37:35;;;;;;;10.20;6.05;;;19.50;99.90;;;;;;5068680;28;20044;-68
2023/09/11 04:40:07;;;;;;;13.65;6.45;;;19.50;99.90;;;;;;5049614;28;20052;-69
2023/09/11 04:42:37;;;;;;;11.65;6.32;;;19.50;99.90;;;;;;5031482;28;20497;-71
2023/09/11 04:45:04;;;;;;;13.05;6.72;;;19.50;99.90;;;;;;5037450;28;20033;-69
2023/09/11 04:47:34;;;;;;;10.48;6.00;;;19.50;99.90;;;;;;5049927;28;20136;-69
2023/09/11 04:50:01;;;;;;;11.50;7.25;;;19.50;99.90;;;;;;5033664;28;20509;-68
2023/09/11 04:52:28;;;;;;;9.05;5.72;;;19.50;99.90;;;;;;5032695;28;20095;-68
2023/09/11 04:54:54;;;;;;;12.57;7.43;;;19.50;99.90;;;;;;5050882;28;20055;-69
2023/09/11 04:57:20;;;;;;;10.45;6.07;;;19.50;99.90;;;;;;5050616;28;20041;-69
2023/09/11 04:59:47;;;;;;;12.90;6.85;;;19.50;99.90;;;;;;5049147;28;20041;-69
2023/09/11 05:02:14;;;;;;;13.63;6.10;;;19.50;99.90;;;;;;5051104;28;20057;-68
2023/09/11 05:04:54;;;;;;;14.20;6.00;;;19.50;99.90;;;;;;5050667;28;20385;-70
2023/09/11 05:07:23;;;;;;;9.75;6.07;;;19.50;99.90;;;;;;5049700;28;20076;-69
2023/09/11 05:09:49;;;;;;;10.95;6.32;;;19.50;99.90;;;;;;5049746;28;20137;-68
2023/09/11 05:12:19;;;;;;;12.40;6.75;;;19.50;99.90;;;;;;5049302;28;20048;-69
2023/09/11 05:14:46;;;;;;;11.50;7.05;;;19.50;99.90;;;;;;5049569;28;20047;-69
2023/09/11 05:17:12;;;;;;;12.40;6.93;;;19.50;99.90;;;;;;5032927;28;20421;-69
2023/09/11 05:19:38;;;;;;;16.85;7.18;;;19.60;99.90;;;;;;5049037;28;20157;-68
2023/09/11 05:22:08;;;;;;;9.52;6.70;;;19.60;99.90;;;;;;5049582;28;20040;-69
2023/09/11 05:24:35;;;;;;;11.52;6.50;;;19.60;99.90;;;;;;5032778;28;20060;-71
2023/09/11 05:27:04;;;;;;;16.35;7.50;;;19.70;99.90;;;;;;5048701;28;20504;-71
2023/09/11 05:29:31;;;;;;;10.77;6.60;;;19.70;99.90;;;;;;5050381;28;20067;-72
2023/09/11 05:31:57;;;;;;;18.27;7.22;;;19.70;99.90;;;;;;4991821;28;20563;-71
2023/09/11 05:34:24;;;;;;;11.27;6.75;;;19.80;99.90;;;;;;4981989;28;20118;-71
2023/09/11 05:36:51;;;;;;;18.23;6.38;;;19.80;99.90;;;;;;5033628;28;20429;-71
2023/09/11 05:39:26;;;;;;;12.75;6.90;;;19.90;99.90;;;;;;5025510;28;20047;-71
2023/09/11 05:41:55;;;;;;;15.30;6.55;;;20.00;99.90;;;;;;5030978;28;20059;-71
2023/09/11 05:44:23;;;;;;;13.60;6.57;;;20.00;99.90;;;;;;5027785;28;20184;-71
2023/09/11 05:46:50;;;;;;;10.93;6.50;;;20.00;99.90;;;;;;5035409;28;20032;-73
2023/09/11 05:49:17;;;;;;;8.82;6.38;;;20.10;99.90;;;;;;5051634;28;20060;-72
2023/09/11 05:51:54;;;;;;;11.43;6.55;;;20.20;99.90;;;;;;5069488;28;20049;-71
2023/09/11 05:54:24;;;;;;;11.15;6.07;;;20.30;99.90;;;;;;5050872;28;20121;-73
2023/09/11 05:56:51;;;;;;;10.48;5.60;;;20.30;99.90;;;;;;5034494;28;20107;-71
2023/09/11 05:59:23;;;;;;;14.48;7.20;;;20.30;99.90;;;;;;4968058;28;20038;-71
2023/09/11 06:01:50;;;;;;;14.45;6.70;;;20.40;99.90;;;;;;4966685;28;20054;-71
2023/09/11 06:04:16;;;;;;;11.50;6.10;;;20.60;99.90;;;;;;4968190;28;20528;-72
2023/09/11 06:06:46;;;;;;;11.82;6.85;;;20.60;99.90;;;;;;4967007;28;20502;-70
2023/09/11 06:09:15;;;;;;;11.15;5.97;;;20.60;99.90;;;;;;5003817;28;20523;-70
2023/09/11 06:11:44;;;;;;;10.43;6.80;;;20.70;99.90;;;;;;5018584;28;20046;-68
2023/09/11 06:14:11;;;;;;;12.30;6.32;;;20.80;99.90;;;;;;5018367;28;20098;-69
2023/09/11 06:17:03;;;;;;;10.47;6.87;;;20.80;99.90;;;;;;4968319;28;20486;-70
2023/09/11 06:19:33;;;;;;;20.50;6.40;;;21.00;99.90;;;;;;5018761;28;20054;-70
2023/09/11 06:22:00;;;;;;;12.85;6.82;;;21.10;99.90;;;;;;5049711;28;20123;-74
2023/09/11 06:24:31;;;;;;;11.30;6.55;;;21.30;99.90;;;;;;5034908;28;20043;-70
2023/09/11 06:27:07;;;;;;;9.57;6.90;;;21.60;99.90;;;;;;5035231;28;20121;-71
2023/09/11 06:29:44;;;;;;;13.10;6.05;;;21.90;99.90;;;;;;5052136;28;20115;-72
2023/09/11 06:32:15;;;;;;;13.05;7.05;;;22.10;99.90;;;;;;5032389;28;20519;-72
2023/09/11 06:34:46;;;;;;;10.68;6.20;;;22.30;99.90;;;;;;5015914;28;20115;-72
2023/09/11 06:37:12;;;;;;;10.27;6.47;;;22.40;99.90;;;;;;5014660;28;20043;-70
2023/09/11 06:39:38;;;;;;;10.85;6.20;;;22.40;99.90;;;;;;5015059;28;20047;-71
2023/09/11 06:42:04;;;;;;;8.18;5.25;;;22.50;99.90;;;;;;4931318;29;20047;-72
2023/09/11 06:44:32;;;;;;;9.60;5.13;;;22.60;99.90;;;;;;4950138;28;20031;-70
2023/09/11 06:47:01;;;;;;;14.77;6.78;;;22.60;99.90;;;;;;5034202;28;20088;-70
2023/09/11 06:49:27;;;;;;;8.95;5.57;;;22.50;99.90;;;;;;5033735;28;20081;-72
2023/09/11 06:51:54;;;;;;;11.15;5.72;;;22.50;99.90;;;;;;5034363;28;20046;-71
2023/09/11 06:54:23;;;;;;;8.82;5.68;;;22.40;99.90;;;;;;5034233;28;20518;-70
2023/09/11 06:56:50;;;;;;;12.98;5.15;;;22.40;99.90;;;;;;4965982;28;20443;-72
2023/09/11 06:59:18;;;;;;;12.90;6.25;;;22.30;99.90;;;;;;5024017;28;20034;-70
2023/09/11 07:01:52;;;;;;;12.13;6.70;;;22.20;99.90;;;;;;4967079;28;20039;-70
2023/09/11 07:04:30;;;;;;;12.45;6.07;;;22.20;99.90;;;;;;4966996;28;20039;-70
2023/09/11 07:06:59;;;;;;;15.13;6.80;;;22.20;99.90;;;;;;4968582;28;20074;-71
2023/09/11 07:09:25;;;;;;;19.63;5.93;;;22.20;99.90;;;;;;4994522;28;20092;-70
2023/09/11 07:12:00;;;;;;;9.77;5.70;;;22.20;99.90;;;;;;5007021;28;20124;-70
2023/09/11 07:14:28;;;;;;;13.57;6.45;;;22.30;99.90;;;;;;5031497;28;20501;-68
2023/09/11 07:17:00;;;;;;;9.93;5.95;;;22.40;99.90;;;;;;4998824;28;20059;-69
2023/09/11 07:19:45;;;;;;;16.02;5.65;;;22.40;99.90;;;;;;5018543;28;20059;-68
2023/09/11 07:22:17;;;;;;;10.02;5.00;;;22.40;99.90;;;;;;5052726;28;20034;-68
2023/09/11 07:24:44;;;;;;;7.78;5.60;;;22.50;99.90;;;;;;5048391;28;20125;-67
2023/09/11 07:27:10;;;;;;;11.48;5.95;;;22.60;99.90;;;;;;5018401;28;20080;-67
2023/09/11 07:29:38;;;;;;;9.32;5.63;;;22.60;99.90;;;;;;5034870;28;20039;-68
2023/09/11 07:32:08;;;;;;;9.10;5.35;;;22.70;99.90;;;;;;5030594;28;20057;-68
2023/09/11 07:34:37;;;;;;;11.20;5.90;;;22.80;99.90;;;;;;5048850;28;20076;-68
2023/09/11 07:37:03;;;;;;;11.88;4.82;;;22.90;99.90;;;;;;5030567;28;20425;-68
2023/09/11 07:39:38;;;;;;;11.35;6.35;;;23.00;99.90;;;;;;5047935;28;20393;-68
2023/09/11 07:42:04;;;;;;;9.13;5.90;;;23.20;99.90;;;;;;5046070;28;20060;-69
2023/09/11 07:44:30;;;;;;;11.48;5.32;;;23.30;99.90;;;;;;5046989;28;20044;-68
2023/09/11 07:46:56;;;;;;;10.23;5.60;;;23.30;99.90;;;;;;5046479;28;20037;-71
2023/09/11 07:49:21;;;;;;;9.98;5.05;;;23.40;99.90;;;;;;5047499;28;20051;-67
2023/09/11 07:51:47;;;;;;;11.05;5.22;;;23.50;99.90;;;;;;5048735;28;20040;-67
2023/09/11 07:54:13;;;;;;;10.63;5.50;;;23.50;99.90;;;;;;5047785;28;20049;-68
2023/09/11 07:56:39;;;;;;;10.23;5.68;;;23.70;99.90;;;;;;5047132;28;20057;-69
2023/09/11 07:59:05;;;;;;;8.70;5.72;;;23.80;99.90;;;;;;5047028;28;20049;-69
2023/09/11 08:01:31;;;;;;;14.80;5.53;;;23.90;99.90;;;;;;5027051;28;20091;-69
2023/09/11 08:03:56;;;;;;;12.73;6.25;;;24.00;99.90;;;;;;5028622;28;20124;-70
2023/09/11 08:06:25;;;;;;;16.15;6.13;;;24.20;99.90;;;;;;5028000;28;20091;-69
2023/09/11 08:08:51;;;;;;;11.90;5.93;;;24.50;99.90;;;;;;5039080;28;20037;-69
2023/09/11 08:11:19;;;;;;;12.60;6.32;;;25.00;99.90;;;;;;5050697;28;20370;-69
2023/09/11 08:13:46;;;;;;;14.73;6.85;;;25.50;99.90;;;;;;5050002;28;20045;-70
2023/09/11 08:16:13;;;;;;;16.58;6.10;;;26.10;99.90;;;;;;5051555;28;20734;-70
2023/09/11 08:18:38;;;;;;;10.98;6.45;;;26.60;99.90;;;;;;5055915;28;20090;-70
2023/09/11 08:21:04;;;;;;;10.93;6.45;;;27.00;99.90;;;;;;5072230;28;20033;-71
2023/09/11 08:23:30;;;;;;;13.05;7.00;;;27.30;99.90;;;;;;5062498;28;20508;-70
2023/09/11 08:25:57;;;;;;;14.68;6.60;;;27.60;99.90;;;;;;5051347;28;20037;-70
2023/09/11 08:28:23;;;;;;;11.18;6.65;;;28.00;99.90;;;;;;5052176;28;20033;-70
2023/09/11 08:30:51;;;;;;;16.60;6.32;;;28.30;99.90;;;;;;5013084;28;20055;-70
2023/09/11 08:33:17;;;;;;;12.20;6.93;;;28.50;99.90;;;;;;5037796;28;20099;-70
2023/09/11 08:35:43;;;;;;;10.05;5.82;;;28.80;99.90;;;;;;4969967;28;20155;-69
2023/09/11 08:38:09;;;;;;;12.60;5.88;;;29.20;99.90;;;;;;4970625;28;20161;-70
2023/09/11 08:40:35;;;;;;;8.95;5.72;;;29.50;99.90;;;;;;4980610;28;20043;-70
2023/09/11 08:43:02;;;;;;;12.50;5.75;;;29.70;99.90;;;;;;5053626;28;20045;-70
2023/09/11 08:45:28;;;;;;;9.52;4.70;;;30.00;99.90;;;;;;5072375;28;20102;-70
2023/09/11 08:47:58;;;;;;;9.23;5.10;;;30.20;99.90;;;;;;5072235;28;20036;-69
2023/09/11 08:50:58;;;;;;;9.05;4.68;;;30.50;99.90;;;;;;5053610;28;20036;-70
2023/09/11 08:53:54;;;;;;;7.88;4.60;;;30.70;99.90;;;;;;5036609;28;20051;-70
2023/09/11 08:56:46;;;;;;;8.55;4.97;;;31.00;99.90;;;;;;5036372;28;20503;-70
2023/09/11 08:59:46;;;;;;;10.77;5.35;;;31.30;99.90;;;;;;5031405;28;20035;-69
2023/09/11 09:02:36;;;;;;;6.43;4.40;;;31.40;99.90;;;;;;4988392;28;20043;-70
2023/09/11 09:05:37;;;;;;;6.28;4.25;;;31.60;99.90;;;;;;5045369;28;20040;-70
2023/09/11 09:08:26;;;;;;;5.60;3.90;;;31.60;99.90;;;;;;5053999;28;20051;-69
2023/09/11 09:11:19;;;;;;;4.97;3.50;;;31.70;99.90;;;;;;5070888;28;20055;-70
2023/09/11 09:14:14;;;;;;;9.55;4.75;;;31.50;99.90;;;;;;5053870;28;20084;-70
2023/09/11 09:16:59;;;;;;;5.70;3.80;;;31.40;99.90;;;;;;5055802;28;20049;-70
2023/09/11 09:19:39;;;;;;;7.78;3.95;;;31.40;99.90;;;;;;5046757;28;20047;-70
2023/09/11 09:22:05;;;;;;;8.27;4.32;;;31.20;99.90;;;;;;4981060;28;20046;-70
2023/09/11 09:24:31;;;;;;;7.72;4.28;;;30.80;99.90;;;;;;4988587;28;20042;-69
2023/09/11 09:26:58;;;;;;;6.22;3.95;;;30.80;99.90;;;;;;4989459;28;20390;-69
2023/09/11 09:29:24;;;;;;;14.38;4.97;;;31.20;99.90;;;;;;5053674;28;20842;-70
2023/09/11 09:31:51;;;;;;;7.80;5.00;;;31.30;99.90;;;;;;5049095;28;20065;-70
2023/09/11 09:34:17;;;;;;;8.35;5.15;;;31.50;99.90;;;;;;5051129;28;20485;-70
2023/09/11 09:36:50;;;;;;;9.98;4.95;;;31.70;99.90;;;;;;5050282;28;20045;-70
2023/09/11 09:39:16;;;;;;;8.05;4.13;;;31.80;99.90;;;;;;5050657;28;20128;-70
2023/09/11 09:41:56;;;;;;;9.20;5.05;;;32.00;99.90;;;;;;5049705;28;20049;-70
2023/09/11 09:44:36;;;;;;;7.68;3.88;;;32.40;99.90;;;;;;5049446;28;20052;-70
2023/09/11 09:47:13;;;;;;;9.52;5.10;;;32.60;99.90;;;;;;5049989;28;20106;-69
2023/09/11 09:49:53;;;;;;;8.30;4.63;;;32.80;99.90;;;;;;5049894;28;20045;-70
2023/09/11 09:52:21;;;;;;;9.00;4.65;;;33.00;99.90;;;;;;5050292;28;20504;-70
2023/09/11 09:54:57;;;;;;;8.07;4.45;;;32.90;99.90;;;;;;5067706;28;20040;-70
2023/09/11 09:57:42;;;;;;;10.52;5.20;;;32.70;99.90;;;;;;5070021;28;20500;-70
2023/09/11 10:00:19;;;;;;;9.43;4.40;;;32.40;99.90;;;;;;5049918;28;20055;-70
2023/09/11 10:02:45;;;;;;;9.73;4.55;;;32.60;99.90;;;;;;5048902;28;20389;-70
2023/09/11 10:05:13;;;;;;;8.77;5.05;;;32.90;99.90;;;;;;5050369;28;20041;-70
2023/09/11 10:07:45;;;;;;;8.00;4.82;;;33.20;99.90;;;;;;5049186;28;20053;-70
2023/09/11 10:10:21;;;;;;;6.65;4.70;;;33.50;99.30;;;;;;5049552;28;20493;-69
2023/09/11 10:13:09;;;;;;;9.60;5.05;;;33.40;98.60;;;;;;5061715;28;20098;-69
2023/09/11 10:15:36;;;;;;;6.88;4.55;;;33.10;97.10;;;;;;5069184;28;20040;-70
2023/09/11 10:18:04;;;;;;;8.57;5.25;;;32.80;97.60;;;;;;5070149;28;20400;-70
2023/09/11 10:20:31;;;;;;;8.35;4.80;;;32.80;98.40;;;;;;5067711;28;20128;-70
2023/09/11 10:22:59;;;;;;;13.43;4.97;;;33.00;98.30;;;;;;5048949;28;20048;-69
2023/09/11 10:25:28;;;;;;;8.98;5.22;;;33.10;97.90;;;;;;5049057;28;20045;-69
2023/09/11 10:28:02;;;;;;;10.13;5.35;;;33.20;97.30;;;;;;5048165;28;20477;-70
2023/09/11 10:30:47;;;;;;;8.07;4.72;;;33.30;97.30;;;;;;5048574;28;20123;-69
2023/09/11 10:33:20;;;;;;;9.35;4.60;;;33.30;96.40;;;;;;5048387;28;20413;-69
2023/09/11 10:35:47;;;;;;;9.60;5.20;;;33.00;96.40;;;;;;5048496;28;20080;-70
2023/09/11 10:38:15;;;;;;;10.07;4.22;;;33.10;96.40;;;;;;5048693;28;20052;-70
2023/09/11 10:40:42;;;;;;;9.63;4.25;;;33.10;96.30;;;;;;5048048;28;20045;-70
2023/09/11 10:43:09;;;;;;;7.50;4.82;;;33.30;96.20;;;;;;5049950;28;20552;-70
2023/09/11 10:45:35;;;;;;;8.52;5.10;;;33.60;96.00;;;;;;5048820;28;20549;-69
2023/09/11 10:48:01;;;;;;;9.10;4.82;;;33.50;95.40;;;;;;5048223;28;20111;-70
2023/09/11 10:50:35;;;;;;;8.02;4.97;;;33.20;95.70;;;;;;5063491;28;20043;-70
2023/09/11 10:53:04;;;;;;;6.90;4.30;;;33.10;96.10;;;;;;5068523;28;20076;-70
2023/09/11 10:55:30;;;;;;;8.20;4.85;;;33.10;96.20;;;;;;5066969;28;20185;-69
2023/09/11 10:58:02;;;;;;;11.18;5.20;;;33.20;96.00;;;;;;5045903;28;20036;-68
2023/09/11 11:00:28;;;;;;;9.48;4.78;;;33.00;95.40;;;;;;5048354;28;20037;-69
2023/09/11 11:02:56;;;;;;;7.70;4.53;;;32.70;95.30;;;;;;5047288;28;20095;-69
2023/09/11 11:05:23;;;;;;;9.43;4.17;;;32.70;95.80;;;;;;5049035;28;20037;-69
2023/09/11 11:07:51;;;;;;;12.85;4.80;;;32.80;95.90;;;;;;5047250;28;20052;-69
2023/09/11 11:10:17;;;;;;;7.05;4.10;;;32.70;95.80;;;;;;5048606;28;20057;-69
2023/09/11 11:12:45;;;;;;;5.68;3.97;;;32.70;95.20;;;;;;5047524;28;20102;-69
2023/09/11 11:15:22;;;;;;;8.50;4.38;;;32.70;95.30;;;;;;5047556;28;20149;-69
2023/09/11 11:18:05;;;;;;;8.35;4.10;;;32.80;94.80;;;;;;5047757;28;20435;-69
2023/09/11 11:20:31;;;;;;;8.48;4.30;;;32.50;94.40;;;;;;5048876;28;20121;-69
2023/09/11 11:23:10;;;;;;;9.27;4.03;;;32.30;94.40;;;;;;5047227;28;20120;-69
2023/09/11 11:25:40;;;;;;;5.72;3.53;;;32.00;93.70;;;;;;5047651;28;20501;-69
2023/09/11 11:28:21;;;;;;;6.47;3.55;;;31.70;94.40;;;;;;5048972;28;20073;-69
2023/09/11 11:30:52;;;;;;;7.97;3.38;;;31.50;94.30;;;;;;5009825;28;20128;-70
2023/09/11 11:33:24;;;;;;;8.20;2.83;;;31.40;94.80;;;;;;5068363;28;20129;-69
2023/09/11 11:35:53;;;;;;;8.27;3.15;;;31.60;94.60;;;;;;5053753;28;20050;-69
2023/09/11 11:38:21;;;;;;;4.82;3.10;;;31.70;93.80;;;;;;5039798;28;20047;-69
2023/09/11 11:40:47;;;;;;;3.38;2.20;;;31.70;93.60;;;;;;4968156;28;20129;-69
2023/09/11 11:43:14;;;;;;;3.63;1.60;;;31.70;93.80;;;;;;5034976;28;20057;-69
2023/09/11 11:45:49;;;;;;;2.38;1.42;;;31.60;93.70;;;;;;5038154;28;20118;-71
2023/09/11 11:48:15;;;;;;;2.38;1.40;;;31.60;93.70;;;;;;5038857;28;20038;-71
2023/09/11 11:50:46;;;;;;;3.38;1.92;;;31.60;93.50;;;;;;5037437;28;20513;-70
2023/09/11 11:53:20;;;;;;;3.30;1.58;;;31.60;92.70;;;;;;4967921;28;20567;-70
2023/09/11 11:55:48;;;;;;;3.67;1.88;;;31.20;92.10;;;;;;5038352;28;20053;-69
2023/09/11 11:58:15;;;;;;;2.88;1.67;;;31.00;92.50;;;;;;5037868;28;20051;-69
2023/09/11 12:01:00;;;;;;;4.53;1.63;;;30.80;92.10;;;;;;4970614;28;20403;-69
2023/09/11 12:03:33;;;;;;;3.15;2.03;;;30.70;92.10;;;;;;4970992;28;20092;-69
2023/09/11 12:06:01;;;;;;;4.95;2.03;;;30.60;91.90;;;;;;5037483;28;20053;-69
2023/09/11 12:08:27;;;;;;;7.22;1.90;;;30.70;92.40;;;;;;4970842;28;20090;-69
2023/09/11 12:10:53;;;;;;;4.68;2.47;;;30.70;92.30;;;;;;4969849;28;20053;-69
2023/09/11 12:13:24;;;;;;;4.40;2.58;;;30.80;92.20;;;;;;4969314;28;20349;-69
2023/09/11 12:15:54;;;;;;;8.38;2.38;;;30.80;92.40;;;;;;4970128;28;20050;-69
2023/09/11 12:18:22;;;;;;;4.97;2.45;;;30.90;92.30;;;;;;4969113;28;20085;-69
2023/09/11 12:20:58;;;;;;;4.03;2.08;;;30.60;92.10;;;;;;5036866;28;20826;-70
2023/09/11 12:23:24;;;;;;;4.57;2.42;;;30.30;92.40;;;;;;5036900;28;20125;-69
2023/09/11 12:25:51;;;;;;;4.18;2.22;;;30.20;92.20;;;;;;5035840;28;20123;-68
2023/09/11 12:28:18;;;;;;;3.88;2.35;;;30.20;92.50;;;;;;5036836;28;20042;-69
2023/09/11 12:30:45;;;;;;;3.28;2.10;;;30.20;92.50;;;;;;5039666;28;20115;-69
2023/09/11 12:33:13;;;;;;;4.18;2.00;;;30.10;92.90;;;;;;5051100;28;20615;-69
2023/09/11 12:35:39;;;;;;;;;;;30.10;93.10;;;;;;5052119;28;20472;-70
2023/09/11 12:38:11;;;;;;;4.35;2.05;;;30.00;93.40;;;;;;5001588;28;19972;-69
2023/09/11 12:40:44;;;;;;;3.15;1.83;;;30.00;93.20;;;;;;4968790;28;20051;-70
2023/09/11 12:43:10;;;;;;;5.20;2.42;;;30.00;93.40;;;;;;5051528;28;20122;-70
2023/09/11 12:45:37;;;;;;;3.83;1.83;;;30.00;93.30;;;;;;5056844;28;20050;-69
2023/09/11 12:48:04;;;;;;;5.00;2.33;;;30.10;93.40;;;;;;5055157;28;20049;-67
2023/09/11 12:50:36;;;;;;;4.05;1.67;;;30.20;93.40;;;;;;5033604;28;20069;-69
2023/09/11 12:53:09;;;;;;;3.45;2.08;;;30.20;93.20;;;;;;5034894;28;20486;-70
2023/09/11 12:55:36;;;;;;;5.32;2.40;;;30.20;92.90;;;;;;5034762;28;20119;-69
2023/09/11 12:58:03;;;;;;;3.00;1.83;;;29.90;93.10;;;;;;4970405;28;20085;-70
2023/09/11 13:00:29;;;;;;;3.15;1.80;;;29.80;93.60;;;;;;4985606;28;20039;-69